Aérodrome :
LOGIN :

S'inscrire | Disclaimer

   EN    FR    IT 

 










Légende :    VFR   VFR Marginal   IFR   IFR Intensif   IFR Très Intensif
Visi : 
Plafond : 
>= 8 km
>= 3000ft
5 à 8 km
1000 à 3000 ft
1500m à 5 km
500 à 1000 ft
800 à 1500m
200 à 500 ft
< 800m
< 200 ft
Symboles :   Orages  Brouillard  Fortes neiges  Fortes précipitations  Vent > 20 kt
SIGMETs :   Divers  Orages  Givrage  Turbulence  Onde Orograph.  Cendres Volcan.






- Altitude de l'aérodrome : 778 ft
- Code IATA : BRQ


LKTB - Brno-Turany

DERNIER METAR :
  • 202230Z VRB02KT 9999 BKN043 04/M00 Q1018 NOSIG

METARs EXPIRÉS :
  • 202200Z 15003KT 9999 BKN043 05/M00 Q1019 NOSIG
  • 202130Z 16004KT 9999 BKN042 05/M00 Q1019 NOSIG
  • 202100Z 16004KT CAVOK 05/M01 Q1019 NOSIG
  • 202030Z 16003KT CAVOK 05/M01 Q1019 NOSIG
  • 202000Z 13006KT CAVOK 05/M01 Q1020 NOSIG

TAF TAF LKTB
Valide du 20 à 18h jusqu'au 22 à 00h UTC


201700Z 2018/2200 18007KT 9999 SCT036
BECMG 2102/2104 BKN033
TEMPO 2104/2109 7000 RA
PROB30
TEMPO 2104/2109 4000 SHRA FEW012CB BKN014
BECMG 2106/2108 30014KT
TEMPO 2108/2116 32018G30KT
BECMG 2109/2111 SCT040
TEMPO 2111/2117 SHRA FEW020CB BKN028
BECMG 2122/2200 29004KT



MET'MAP, la Météo Aéronautique d'un coup d'oeil ! - Copyright ORBIFLY Décembre 2007 - Disclaimer

ORBIFLY MET'MAP TEAM :

Programmation & Développement : Alexandra Zaïnal
Sur une idée originale de : Baudouin d'Aumeries
Assistance à la programmation : Marc-Olivier Méhu
Soutien technique & logistique : Manuel Goepfert

Contact : metmap@orbifly.com




SOURCES & CREDITS :

   NOAA